createdAt,value
2023-03-11T00:00:16.417Z,15.01
2023-03-11T00:02:44.202Z,14.96
2023-03-11T00:05:14.022Z,14.89
2023-03-11T00:07:41.068Z,14.84
2023-03-11T00:10:08.327Z,14.82
2023-03-11T00:12:35.164Z,14.81
2023-03-11T00:15:02.216Z,14.78
2023-03-11T00:17:29.226Z,14.81
2023-03-11T00:19:56.284Z,14.88
2023-03-11T00:22:24.175Z,14.99
2023-03-11T00:24:51.162Z,14.98
2023-03-11T00:27:18.015Z,14.95
2023-03-11T00:29:45.058Z,14.87
2023-03-11T00:32:12.293Z,14.85
2023-03-11T00:34:39.341Z,14.83
2023-03-11T00:37:06.265Z,14.83
2023-03-11T00:39:33.971Z,14.89
2023-03-11T00:42:00.981Z,15.02
2023-03-11T00:44:27.913Z,15.34
2023-03-11T00:46:54.759Z,15.63
2023-03-11T00:49:21.715Z,15.77
2023-03-11T00:51:48.779Z,15.87
2023-03-11T00:54:15.795Z,15.79
2023-03-11T00:56:42.932Z,15.70
2023-03-11T00:59:11.169Z,15.69
2023-03-11T01:01:38.066Z,15.65
2023-03-11T01:04:04.992Z,15.60
2023-03-11T01:06:43.172Z,15.51
2023-03-11T01:09:12.309Z,15.46
2023-03-11T01:11:39.365Z,15.44
2023-03-11T01:14:08.367Z,15.38
2023-03-11T01:16:35.241Z,15.25
2023-03-11T01:19:02.271Z,15.10
2023-03-11T01:21:29.159Z,14.96
2023-03-11T01:23:56.058Z,14.85
2023-03-11T01:26:23.023Z,14.70
2023-03-11T01:28:49.945Z,14.63
2023-03-11T01:31:17.548Z,14.58
2023-03-11T01:33:44.685Z,14.51
2023-03-11T01:36:12.269Z,14.40
2023-03-11T01:38:39.289Z,14.26
2023-03-11T01:41:06.623Z,14.20
2023-03-11T01:43:46.096Z,14.22
2023-03-11T01:46:50.352Z,14.25
2023-03-11T01:49:18.106Z,14.29
2023-03-11T01:51:47.109Z,14.42
2023-03-11T01:54:19.389Z,14.72
2023-03-11T01:56:46.803Z,14.93
2023-03-11T01:59:16.594Z,15.10
2023-03-11T02:01:46.910Z,15.15
2023-03-11T02:04:14.244Z,15.14
2023-03-11T02:06:41.170Z,15.08
2023-03-11T02:09:08.746Z,15.02
2023-03-11T02:11:35.700Z,14.97
2023-03-11T02:14:04.881Z,14.97
2023-03-11T02:16:32.302Z,14.98
2023-03-11T02:19:01.101Z,15.06
2023-03-11T02:21:32.990Z,15.13
2023-03-11T02:24:02.330Z,15.19
2023-03-11T02:26:38.308Z,15.20
2023-03-11T02:29:07.136Z,15.18
2023-03-11T02:31:35.143Z,15.15
2023-03-11T02:34:05.125Z,15.16
2023-03-11T02:36:32.236Z,15.14
2023-03-11T02:38:59.361Z,15.15
2023-03-11T02:41:26.806Z,15.15
2023-03-11T02:43:54.008Z,15.10
2023-03-11T02:46:23.056Z,15.03
2023-03-11T02:48:50.105Z,15.13
2023-03-11T02:51:17.658Z,15.20
2023-03-11T02:53:46.958Z,15.27
2023-03-11T02:56:14.941Z,15.27
2023-03-11T02:58:42.884Z,15.33
2023-03-11T03:01:10.737Z,15.35
2023-03-11T03:03:39.022Z,15.33
2023-03-11T03:06:06.880Z,15.25
2023-03-11T03:08:33.805Z,15.17
2023-03-11T03:11:01.427Z,15.10
2023-03-11T03:13:29.357Z,15.04
2023-03-11T03:15:56.918Z,14.98
2023-03-11T03:18:23.872Z,14.88
2023-03-11T03:20:53.060Z,14.91
2023-03-11T03:23:20.593Z,14.91
2023-03-11T03:25:47.477Z,14.90
2023-03-11T03:28:15.139Z,14.87
2023-03-11T03:30:45.274Z,14.82
2023-03-11T03:33:14.013Z,14.69
2023-03-11T03:35:42.965Z,14.64
2023-03-11T03:38:16.430Z,14.60
2023-03-11T03:40:47.923Z,14.49
2023-03-11T03:43:17.753Z,14.49
2023-03-11T03:45:46.227Z,14.41
2023-03-11T03:48:13.267Z,14.46
2023-03-11T03:50:44.209Z,14.49
2023-03-11T03:53:14.779Z,14.57
2023-03-11T03:55:42.682Z,14.69
2023-03-11T03:58:10.519Z,14.75
2023-03-11T04:00:39.535Z,14.83
2023-03-11T04:03:07.167Z,14.82
2023-03-11T04:05:42.110Z,14.82
2023-03-11T04:08:09.227Z,14.87
2023-03-11T04:10:36.141Z,14.91
2023-03-11T04:13:03.805Z,14.89
2023-03-11T04:15:31.264Z,14.89
2023-03-11T04:17:59.196Z,14.85
2023-03-11T04:20:26.776Z,14.83
2023-03-11T04:22:54.168Z,14.83
2023-03-11T04:25:23.859Z,14.85
2023-03-11T04:27:52.448Z,14.89
2023-03-11T04:30:20.495Z,14.86
2023-03-11T04:32:49.795Z,14.80
2023-03-11T04:35:17.344Z,14.72
2023-03-11T04:37:45.794Z,14.70
2023-03-11T04:40:13.101Z,14.71
2023-03-11T04:42:40.499Z,14.67
2023-03-11T04:45:08.300Z,14.58
2023-03-11T04:47:35.691Z,14.51
2023-03-11T04:50:05.960Z,14.46
2023-03-11T04:52:33.038Z,14.45
2023-03-11T04:55:00.125Z,14.40
2023-03-11T04:57:27.297Z,14.31
2023-03-11T04:59:56.156Z,14.26
2023-03-11T05:02:23.161Z,14.24
2023-03-11T05:04:55.895Z,14.21
2023-03-11T05:07:23.032Z,14.21
2023-03-11T05:09:50.796Z,14.20
2023-03-11T05:12:17.798Z,14.23
2023-03-11T05:14:49.340Z,14.31
2023-03-11T05:17:18.881Z,14.37
2023-03-11T05:19:47.615Z,14.43
2023-03-11T05:22:22.618Z,14.42
2023-03-11T05:24:50.045Z,14.38
2023-03-11T05:27:18.386Z,14.35
2023-03-11T05:29:48.420Z,14.28
2023-03-11T05:32:17.182Z,14.27
2023-03-11T05:34:46.453Z,14.27
2023-03-11T05:37:15.899Z,14.27
2023-03-11T05:39:43.597Z,14.24
2023-03-11T05:42:12.249Z,14.22
2023-03-11T05:44:40.099Z,14.24
2023-03-11T05:47:07.164Z,14.26
2023-03-11T05:49:37.132Z,14.29
2023-03-11T05:52:04.665Z,14.40
2023-03-11T05:54:32.609Z,14.57
2023-03-11T05:56:59.696Z,14.98
2023-03-11T05:59:26.822Z,15.55
2023-03-11T06:01:59.587Z,15.99
2023-03-11T06:04:26.616Z,16.64
2023-03-11T06:06:54.169Z,17.32
2023-03-11T06:09:23.744Z,17.93
2023-03-11T06:11:52.534Z,18.61
2023-03-11T06:14:22.820Z,18.94
2023-03-11T06:16:51.439Z,19.04
2023-03-11T06:19:21.751Z,18.74
2023-03-11T06:21:58.854Z,19.05
2023-03-11T06:24:26.043Z,19.98
2023-03-11T06:26:53.390Z,21.13
2023-03-11T06:29:24.674Z,22.23
2023-03-11T06:31:52.118Z,23.05
2023-03-11T06:34:19.121Z,23.80
2023-03-11T06:36:46.406Z,23.23
2023-03-11T06:39:15.521Z,22.38
2023-03-11T06:41:45.702Z,21.52
2023-03-11T06:44:13.607Z,21.30
2023-03-11T06:46:41.925Z,20.60
2023-03-11T06:49:09.033Z,21.22
2023-03-11T06:51:37.514Z,21.13
2023-03-11T06:54:05.086Z,20.78
2023-03-11T06:56:32.674Z,21.37
2023-03-11T06:59:04.598Z,21.34
2023-03-11T07:01:33.895Z,21.91
2023-03-11T07:04:02.958Z,21.56
2023-03-11T07:06:30.653Z,21.09
2023-03-11T07:09:12.133Z,20.34
2023-03-11T07:11:42.754Z,20.71
2023-03-11T07:14:14.344Z,20.88
2023-03-11T07:16:45.464Z,20.60
2023-03-11T07:19:23.205Z,20.78
2023-03-11T07:21:50.312Z,20.79
2023-03-11T07:24:17.803Z,21.44
2023-03-11T07:26:44.854Z,21.38
2023-03-11T07:29:11.730Z,21.63
2023-03-11T07:31:38.844Z,22.27
2023-03-11T07:34:11.213Z,22.84
2023-03-11T07:36:40.429Z,23.44
2023-03-11T07:39:07.394Z,22.86
2023-03-11T07:41:35.145Z,22.52
2023-03-11T07:44:02.560Z,22.64
2023-03-11T07:46:30.177Z,22.25
2023-03-11T07:48:57.188Z,22.23
2023-03-11T07:51:25.870Z,21.85
2023-03-11T07:53:53.687Z,21.95
2023-03-11T07:56:21.312Z,21.06
2023-03-11T07:58:48.299Z,20.46
2023-03-11T08:01:17.013Z,20.19
2023-03-11T08:03:47.925Z,20.06
2023-03-11T08:06:19.579Z,20.10
2023-03-11T08:08:46.669Z,19.93
2023-03-11T08:11:14.392Z,20.04
2023-03-11T08:13:41.873Z,19.82
2023-03-11T08:16:09.630Z,19.77
2023-03-11T08:18:36.693Z,19.76
2023-03-11T08:21:07.476Z,19.77
2023-03-11T08:23:34.534Z,19.85
2023-03-11T08:26:08.444Z,19.94
2023-03-11T08:28:36.384Z,19.98
2023-03-11T08:31:03.889Z,20.18
2023-03-11T08:33:30.818Z,20.28
2023-03-11T08:35:58.088Z,20.21
2023-03-11T08:38:25.232Z,20.35
2023-03-11T08:40:52.128Z,20.35
2023-03-11T08:43:19.111Z,20.42
2023-03-11T08:45:46.122Z,20.55
2023-03-11T08:48:13.094Z,20.53
2023-03-11T08:50:53.389Z,20.54
2023-03-11T08:53:22.283Z,20.90
2023-03-11T08:55:49.899Z,21.01
2023-03-11T08:58:16.841Z,21.26
2023-03-11T09:00:44.107Z,21.41
2023-03-11T09:03:11.300Z,21.70
2023-03-11T09:05:38.198Z,21.86
2023-03-11T09:08:06.733Z,22.10
2023-03-11T09:10:33.589Z,22.26
2023-03-11T09:13:00.576Z,22.34
2023-03-11T09:15:27.477Z,22.66
2023-03-11T09:17:54.572Z,22.80
2023-03-11T09:20:21.697Z,22.87
2023-03-11T09:22:48.796Z,22.77
2023-03-11T09:25:15.834Z,22.55
2023-03-11T09:27:43.272Z,22.68
2023-03-11T09:30:10.811Z,22.45
2023-03-11T09:32:37.964Z,22.33
2023-03-11T09:35:05.244Z,22.02
2023-03-11T09:39:22.347Z,21.54
2023-03-11T09:42:11.080Z,21.71
2023-03-11T09:44:42.587Z,21.52
2023-03-11T09:47:21.693Z,21.52
2023-03-11T09:50:07.408Z,21.38
2023-03-11T09:52:46.269Z,21.35
2023-03-11T09:55:25.796Z,21.27
2023-03-11T09:57:56.244Z,21.29
2023-03-11T10:00:25.305Z,21.41
2023-03-11T10:02:52.791Z,21.51
2023-03-11T10:05:27.581Z,21.62
2023-03-11T10:08:13.240Z,21.85
2023-03-11T10:10:50.255Z,21.98
2023-03-11T10:13:32.518Z,22.04
2023-03-11T10:16:19.428Z,22.10
2023-03-11T10:18:56.960Z,22.10
2023-03-11T10:21:26.992Z,22.16
2023-03-11T10:24:02.158Z,22.19
2023-03-11T10:26:45.800Z,22.29
2023-03-11T10:29:19.180Z,22.46
2023-03-11T10:31:49.403Z,22.53
2023-03-11T10:34:40.044Z,22.45
2023-03-11T10:37:46.560Z,22.30
2023-03-11T10:40:32.316Z,22.33
2023-03-11T10:43:04.594Z,22.46
2023-03-11T10:45:41.636Z,22.56
2023-03-11T10:48:14.543Z,22.84
2023-03-11T10:51:14.915Z,23.05
2023-03-11T10:54:03.666Z,23.40
2023-03-11T10:56:37.140Z,23.50
2023-03-11T10:59:06.865Z,23.77
2023-03-11T11:01:34.583Z,23.91
2023-03-11T11:04:02.548Z,24.15
2023-03-11T11:06:37.489Z,24.21
2023-03-11T11:09:22.349Z,24.18
2023-03-11T11:12:16.619Z,24.31
2023-03-11T11:14:52.719Z,24.21
2023-03-11T11:17:31.287Z,24.45
2023-03-11T11:19:59.738Z,24.49
2023-03-11T11:22:28.577Z,24.39
2023-03-11T11:24:58.260Z,24.36
2023-03-11T11:27:29.396Z,24.45
2023-03-11T11:30:12.507Z,24.55
2023-03-11T11:32:39.631Z,24.84
2023-03-11T11:35:15.244Z,24.87
2023-03-11T11:37:46.625Z,25.01
2023-03-11T11:40:17.303Z,25.00
2023-03-11T11:42:52.586Z,25.06
2023-03-11T11:45:33.394Z,24.87
2023-03-11T11:48:08.797Z,24.74
2023-03-11T11:50:42.151Z,24.60
2023-03-11T11:53:20.940Z,24.42
2023-03-11T11:55:52.710Z,24.25
2023-03-11T11:58:21.555Z,24.27
2023-03-11T12:01:07.117Z,24.26
2023-03-11T12:04:06.898Z,24.30
2023-03-11T12:06:50.835Z,24.71
2023-03-11T12:09:39.507Z,24.96
2023-03-11T12:12:21.814Z,25.00
2023-03-11T12:15:21.017Z,25.17
2023-03-11T12:17:52.733Z,25.45
2023-03-11T12:20:54.618Z,25.41
2023-03-11T12:23:46.150Z,25.24
2023-03-11T12:26:22.240Z,25.29
2023-03-11T12:29:24.645Z,25.09
2023-03-11T12:31:53.812Z,24.74
2023-03-11T12:34:24.939Z,24.44
2023-03-11T12:36:53.239Z,24.52
2023-03-11T12:39:32.932Z,24.57
2023-03-11T12:42:38.570Z,24.61
2023-03-11T12:45:43.263Z,24.53
2023-03-11T12:48:28.773Z,24.68
2023-03-11T12:50:59.737Z,24.81
2023-03-11T12:53:45.419Z,25.05
2023-03-11T12:56:25.303Z,24.84
2023-03-11T12:59:04.419Z,24.36
2023-03-11T13:01:56.820Z,24.15
2023-03-11T13:04:27.518Z,24.01
2023-03-11T13:07:05.506Z,24.32
2023-03-11T13:09:33.003Z,24.42
2023-03-11T13:12:00.305Z,24.60
2023-03-11T13:14:32.915Z,24.80
2023-03-11T13:17:26.116Z,24.67
2023-03-11T13:19:55.736Z,24.56
2023-03-11T13:22:43.636Z,24.73
2023-03-11T13:25:29.901Z,24.69
2023-03-11T13:28:27.835Z,24.59
2023-03-11T13:31:16.245Z,24.63
2023-03-11T13:33:58.211Z,24.42
2023-03-11T13:37:00.395Z,24.24
2023-03-11T13:39:39.447Z,24.02
2023-03-11T13:42:20.294Z,23.98
2023-03-11T13:44:48.096Z,24.04
2023-03-11T13:47:17.806Z,24.01
2023-03-11T13:50:02.907Z,23.93
2023-03-11T13:52:37.777Z,23.79
2023-03-11T13:55:15.839Z,23.68
2023-03-11T13:57:53.543Z,23.76
2023-03-11T14:00:28.701Z,23.98
2023-03-11T14:02:59.346Z,24.09
2023-03-11T14:05:31.081Z,24.19
2023-03-11T14:08:19.466Z,24.18
2023-03-11T14:11:01.333Z,24.22
2023-03-11T14:13:38.384Z,24.41
2023-03-11T14:16:16.011Z,24.47
2023-03-11T14:18:46.689Z,24.50
2023-03-11T14:21:20.061Z,24.52
2023-03-11T14:23:50.186Z,24.55
2023-03-11T14:26:23.213Z,24.50
2023-03-11T14:28:51.700Z,24.39
2023-03-11T14:31:34.737Z,24.42
2023-03-11T14:34:07.750Z,24.46
2023-03-11T14:36:54.448Z,24.45
2023-03-11T14:39:28.218Z,24.45
2023-03-11T14:42:19.083Z,24.46
2023-03-11T14:45:18.157Z,24.30
2023-03-11T14:48:16.536Z,24.23
2023-03-11T14:50:50.055Z,24.25
2023-03-11T14:53:26.279Z,24.37
2023-03-11T14:55:59.808Z,24.26
2023-03-11T14:58:49.166Z,24.10
2023-03-11T15:01:26.484Z,23.92
2023-03-11T15:03:58.763Z,23.91
2023-03-11T15:06:30.872Z,23.88
2023-03-11T15:09:07.683Z,23.80
2023-03-11T15:12:01.992Z,23.72
2023-03-11T15:14:32.766Z,23.53
2023-03-11T15:17:42.748Z,23.40
2023-03-11T15:20:31.435Z,23.34
2023-03-11T15:23:04.490Z,23.27
2023-03-11T15:25:33.465Z,23.22
2023-03-11T15:28:29.266Z,23.06
2023-03-11T15:31:15.210Z,22.99
2023-03-11T15:33:43.579Z,22.91
2023-03-11T15:36:42.453Z,22.82
2023-03-11T15:39:17.818Z,22.76
2023-03-11T15:41:48.213Z,22.74
2023-03-11T15:44:28.171Z,22.73
2023-03-11T15:46:55.355Z,22.65
2023-03-11T15:49:22.691Z,22.56
2023-03-11T15:51:49.816Z,22.48
2023-03-11T15:54:17.014Z,22.40
2023-03-11T15:56:45.437Z,22.34
2023-03-11T15:59:17.312Z,22.34
2023-03-11T16:01:46.488Z,22.36
2023-03-11T16:04:16.204Z,22.34
2023-03-11T16:06:44.373Z,22.31
2023-03-11T16:09:12.389Z,22.31
2023-03-11T16:11:40.981Z,22.28
2023-03-11T16:14:16.521Z,22.26
2023-03-11T16:16:44.831Z,22.21
2023-03-11T16:19:12.322Z,22.17
2023-03-11T16:21:49.655Z,22.09
2023-03-11T16:24:23.612Z,22.04
2023-03-11T16:26:52.921Z,22.00
2023-03-11T16:29:20.704Z,21.96
2023-03-11T16:31:49.419Z,21.91
2023-03-11T16:34:16.838Z,21.85
2023-03-11T16:36:44.116Z,21.80
2023-03-11T16:39:11.980Z,21.76
2023-03-11T16:41:44.535Z,21.71
2023-03-11T16:44:11.980Z,21.63
2023-03-11T16:46:39.162Z,21.60
2023-03-11T16:49:06.585Z,21.55
2023-03-11T16:51:34.150Z,21.47
2023-03-11T16:54:01.503Z,21.43
2023-03-11T16:56:28.674Z,21.38
2023-03-11T16:58:55.816Z,21.29
2023-03-11T17:01:23.094Z,21.24
2023-03-11T17:03:51.097Z,21.20
2023-03-11T17:06:19.753Z,21.23
2023-03-11T17:08:49.703Z,21.24
2023-03-11T17:11:18.154Z,21.22
2023-03-11T17:13:45.664Z,21.13
2023-03-11T17:16:13.718Z,21.12
2023-03-11T17:18:41.985Z,21.09
2023-03-11T17:21:12.084Z,21.05
2023-03-11T17:23:39.866Z,21.00
2023-03-11T17:26:12.960Z,21.03
2023-03-11T17:28:40.671Z,21.01
2023-03-11T17:31:15.950Z,21.02
2023-03-11T17:33:44.296Z,21.03
2023-03-11T17:36:16.274Z,20.99
2023-03-11T17:38:45.542Z,21.00
2023-03-11T17:41:17.587Z,21.03
2023-03-11T17:43:46.215Z,21.01
2023-03-11T17:46:16.046Z,21.01
2023-03-11T17:48:45.352Z,20.91
2023-03-11T17:51:15.840Z,20.87
2023-03-11T17:53:45.980Z,20.85
2023-03-11T17:56:15.420Z,20.90
2023-03-11T17:58:42.772Z,20.87
2023-03-11T18:01:16.219Z,20.83
2023-03-11T18:03:43.629Z,20.82
2023-03-11T18:06:11.841Z,20.68
2023-03-11T18:08:39.217Z,20.52
2023-03-11T18:11:09.991Z,20.48
2023-03-11T18:13:38.844Z,20.40
2023-03-11T18:16:09.584Z,20.34
2023-03-11T18:18:37.867Z,20.30
2023-03-11T18:21:11.479Z,20.26
2023-03-11T18:23:39.116Z,20.16
2023-03-11T18:26:08.539Z,20.11
2023-03-11T18:28:36.151Z,20.05
2023-03-11T18:31:14.674Z,19.79
2023-03-11T18:33:46.629Z,19.60
2023-03-11T18:36:21.455Z,19.59
2023-03-11T18:38:49.249Z,19.52
2023-03-11T18:41:16.681Z,19.42
2023-03-11T18:43:43.862Z,19.33
2023-03-11T18:46:16.469Z,19.47
2023-03-11T18:48:43.541Z,19.42
2023-03-11T18:51:12.850Z,19.37
2023-03-11T18:53:42.442Z,19.36
2023-03-11T18:56:13.860Z,19.43
2023-03-11T18:58:41.248Z,19.43
2023-03-11T19:01:15.294Z,19.47
2023-03-11T19:03:44.210Z,19.67
2023-03-11T19:06:13.409Z,19.87
2023-03-11T19:08:40.815Z,20.04
2023-03-11T19:11:09.581Z,20.23
2023-03-11T19:13:46.715Z,20.46
2023-03-11T19:16:17.723Z,20.55
2023-03-11T19:18:45.637Z,20.60
2023-03-11T19:21:14.969Z,20.56
2023-03-11T19:23:42.234Z,20.47
2023-03-11T19:26:09.850Z,20.41
2023-03-11T19:28:37.259Z,20.32
2023-03-11T19:31:05.352Z,20.32
2023-03-11T19:33:32.784Z,20.35
2023-03-11T19:36:02.501Z,20.36
2023-03-11T19:38:31.161Z,20.44
2023-03-11T19:41:01.559Z,20.51
2023-03-11T19:43:29.492Z,20.48
2023-03-11T19:45:57.015Z,20.44
2023-03-11T19:48:24.407Z,20.34
2023-03-11T19:50:52.444Z,20.03
2023-03-11T19:53:21.924Z,19.54
2023-03-11T19:55:52.623Z,19.18
2023-03-11T19:58:21.195Z,19.19
2023-03-11T20:00:48.537Z,19.50
2023-03-11T20:03:17.248Z,19.77
2023-03-11T20:05:46.797Z,19.95
2023-03-11T20:08:17.261Z,20.17
2023-03-11T20:10:47.246Z,20.24
2023-03-11T20:13:16.638Z,20.26
2023-03-11T20:15:44.684Z,20.28
2023-03-11T20:18:13.452Z,20.27
2023-03-11T20:20:44.240Z,20.20
2023-03-11T20:23:13.480Z,20.11
2023-03-11T20:25:42.192Z,20.04
2023-03-11T20:28:10.942Z,19.92
2023-03-11T20:30:40.246Z,19.86
2023-03-11T20:33:08.396Z,19.75
2023-03-11T20:35:36.276Z,19.72
2023-03-11T20:38:04.763Z,19.60
2023-03-11T20:40:32.461Z,19.52
2023-03-11T20:43:00.182Z,19.47
2023-03-11T20:45:27.595Z,19.44
2023-03-11T20:47:55.841Z,19.38
2023-03-11T20:50:23.422Z,19.38
2023-03-11T20:52:51.537Z,19.35
2023-03-11T20:55:18.937Z,19.33
2023-03-11T20:57:46.811Z,19.33
2023-03-11T21:00:14.328Z,19.44
2023-03-11T21:02:43.476Z,19.45
2023-03-11T21:05:12.367Z,19.23
2023-03-11T21:07:40.549Z,19.06
2023-03-11T21:10:12.772Z,18.88
2023-03-11T21:12:39.989Z,18.66
2023-03-11T21:15:09.006Z,18.44
2023-03-11T21:17:37.389Z,18.13
2023-03-11T21:20:06.576Z,17.91
2023-03-11T21:22:34.098Z,17.72
2023-03-11T21:25:01.174Z,17.57
2023-03-11T21:27:28.507Z,17.48
2023-03-11T21:29:56.013Z,17.35
2023-03-11T21:32:25.001Z,17.29
2023-03-11T21:34:55.968Z,17.20
2023-03-11T21:37:23.400Z,17.08
2023-03-11T21:39:50.612Z,16.99
2023-03-11T21:42:18.250Z,16.93
2023-03-11T21:44:45.693Z,16.79
2023-03-11T21:47:12.813Z,16.71
2023-03-11T21:49:40.123Z,16.67
2023-03-11T21:52:07.534Z,16.62
2023-03-11T21:54:34.733Z,16.57
2023-03-11T21:57:01.880Z,16.52
2023-03-11T21:59:30.758Z,16.50
2023-03-11T22:02:01.540Z,16.47
2023-03-11T22:04:30.061Z,16.57
2023-03-11T22:06:57.589Z,16.59
2023-03-11T22:09:26.122Z,16.56
2023-03-11T22:11:54.266Z,16.52
2023-03-11T22:14:21.447Z,16.43
2023-03-11T22:16:48.910Z,16.37
2023-03-11T22:19:16.040Z,16.32
2023-03-11T22:21:43.769Z,16.26
2023-03-11T22:24:11.144Z,16.23
2023-03-11T22:26:38.438Z,16.20
2023-03-11T22:29:08.583Z,16.20
2023-03-11T22:31:36.056Z,16.09
2023-03-11T22:34:03.232Z,16.04
2023-03-11T22:36:30.349Z,15.98
2023-03-11T22:38:57.440Z,15.94
2023-03-11T22:41:24.566Z,15.87
2023-03-11T22:43:51.704Z,15.83
2023-03-11T22:46:18.852Z,15.83
2023-03-11T22:48:46.065Z,15.83
2023-03-11T22:51:13.375Z,15.81
2023-03-11T22:53:40.512Z,15.82
2023-03-11T22:56:10.655Z,15.79
2023-03-11T22:58:38.323Z,15.81
2023-03-11T23:01:06.388Z,15.80
2023-03-11T23:03:34.844Z,15.83
2023-03-11T23:06:06.742Z,15.84
2023-03-11T23:08:34.621Z,15.88
2023-03-11T23:11:03.947Z,15.93
2023-03-11T23:13:32.417Z,15.94
2023-03-11T23:16:05.332Z,15.88
2023-03-11T23:18:32.495Z,15.87
2023-03-11T23:20:59.550Z,15.81
2023-03-11T23:23:26.918Z,15.74
2023-03-11T23:25:54.181Z,15.68
2023-03-11T23:28:21.530Z,15.67
2023-03-11T23:30:48.623Z,15.63
2023-03-11T23:33:15.688Z,15.58
2023-03-11T23:35:43.099Z,15.51
2023-03-11T23:38:10.577Z,15.55
2023-03-11T23:40:40.826Z,15.57
2023-03-11T23:43:08.229Z,15.54
2023-03-11T23:45:35.564Z,15.51
2023-03-11T23:48:02.666Z,15.47
2023-03-11T23:50:29.764Z,15.43
2023-03-11T23:52:56.931Z,15.38
2023-03-11T23:55:24.115Z,15.36
2023-03-11T23:57:51.305Z,15.36
